Home > Products > Valid Products > TAF

000
FTUS45 KPSR 021700
TAFBLH
TAF
KBLH 021729Z 0218/0318 18010KT P6SM SKC
      TEMPO 0221/0301 18010G20KT
     FM030200 24008KT P6SM SKC
     FM030600 18004KT P6SM SKC=



000
FTUS45 KPSR 021700
TAFPHX
TAF
KPHX 021729Z 0218/0318 VRB06KT P6SM SKC
      TEMPO 0218/0222 18008KT
     FM022200 24009KT P6SM SKC
     FM030300 VRB05KT P6SM SKC
     FM031000 11006KT P6SM SKC=



000
FTUS45 KPSR 021700
TAFIPL
TAF
KIPL 021729Z 0218/0318 13005KT P6SM SKC
     FM030400 27008KT P6SM SKC
     FM030800 VRB03KT P6SM SKC=



000
FTUS45 KPSR 021700
TAFIWA
TAF
KIWA 021729Z 0218/0318 15007KT P6SM SKC
     FM022100 26006KT P6SM SKC
     FM030300 VRB05KT P6SM SKC
     FM030700 13007KT P6SM SKC=



000
FTUS45 KPSR 021700
TAFIWA
TAF
KIWA 021729Z 0218/0318 15007KT P6SM SKC
     FM022100 26006KT P6SM SKC
     FM030300 VRB05KT P6SM SKC
     FM030700 13007KT P6SM SKC=



000
FTUS45 KPSR 021500 AAA
TAFPHX
TAF AMD
KPHX 021511Z 0215/0312 10005KT P6SM SKC
     FM022100 24006KT P6SM SKC
     FM030300 VRB05KT P6SM SKC=



000
FTUS45 KPSR 021100
TAFIPL
TAF
KIPL 021121Z 0212/0312 VRB04KT P6SM SKC
     FM022100 14004KT P6SM SKC
     FM030500 27008KT P6SM SKC=



000
FTUS45 KPSR 021100
TAFIWA
TAF
KIWA 021121Z 0212/0312 12007KT P6SM SKC
     FM022100 26006KT P6SM SKC
     FM030300 VRB05KT P6SM SKC
     FM030600 13007KT P6SM SKC
      AMD LTD TO CLD VIS AND WIND TIL 021300=



000
FTUS45 KPSR 021100
TAFBLH
TAF
KBLH 021121Z 0212/0312 24006KT P6SM SKC
     FM022100 18010KT P6SM SKC
     FM030100 22010KT P6SM SKC
     FM030800 18004KT P6SM SKC=



000
FTUS45 KPSR 021100
TAFPHX
TAF
KPHX 021121Z 0212/0312 10005KT P6SM SKC
     FM022100 24006KT P6SM SKC
     FM030300 VRB05KT P6SM SKC=



000
FTUS45 KPSR 021100
TAFIWA
TAF
KIWA 021121Z 0212/0312 12007KT P6SM SKC
     FM022100 26006KT P6SM SKC
     FM030300 VRB05KT P6SM SKC
     FM030600 13007KT P6SM SKC
      AMD LTD TO CLD VIS AND WIND TIL 021300=



000
FTUS45 KPSR 020900 AAA
TAFPHX
TAF AMD
KPHX 020908Z 0209/0306 10005KT P6SM SKC
     FM022100 24006KT P6SM SKC=



000
FTUS45 KPSR 020500
TAFIWA
TAF
KIWA 020520Z 0206/0306 VRB04KT P6SM SKC
     FM020700 14007KT P6SM SKC
     FM022100 26006KT P6SM SKC
      AMD LTD TO CLD VIS AND WIND TIL 021300=



000
FTUS45 KPSR 020500
TAFIWA
TAF
KIWA 020520Z 0206/0306 VRB04KT P6SM SKC
     FM020700 14007KT P6SM SKC
     FM022100 26006KT P6SM SKC
      AMD LTD TO CLD VIS AND WIND TIL 021300=



000
FTUS45 KPSR 020500
TAFPHX
TAF
KPHX 020520Z 0206/0306 VRB04KT P6SM SKC
     FM021000 10005KT P6SM SKC
     FM022100 24006KT P6SM SKC=



000
FTUS45 KPSR 020500
TAFBLH
TAF
KBLH 020520Z 0206/0306 24006KT P6SM SKC
     FM022100 18010KT P6SM SKC
     FM030300 22006KT P6SM SKC=



000
FTUS45 KPSR 020500
TAFIPL
TAF
KIPL 020520Z 0206/0306 25006KT P6SM SKC
     FM021100 VRB04KT P6SM SKC
     FM022100 14005KT P6SM SKC
     FM030200 27008KT P6SM SKC=



000
FTUS45 KPSR 020200 AAA
TAFPHX
TAF AMD
KPHX 020237Z 0203/0224 02006KT P6SM SKC
     FM021000 10005KT P6SM SKC
     FM022100 19008KT P6SM SKC=



000
FTUS45 KPSR 012300
TAFBLH
TAF
KBLH 012325Z 0200/0224 18010KT P6SM SKC
     FM020300 20006KT P6SM SKC
     FM022100 18010KT P6SM SKC=



000
FTUS45 KPSR 012300
TAFIWA
TAF
KIWA 012325Z 0200/0224 28008KT P6SM SKC
     FM020300 VRB04KT P6SM SKC
     FM020700 14007KT P6SM SKC
     FM022100 26006KT P6SM SKC
      AMD LTD TO CLD VIS AND WIND 0203/0213=



000
FTUS45 KPSR 012300
TAFPHX
TAF
KPHX 012325Z 0200/0224 24010KT P6SM SKC
     FM021000 10005KT P6SM SKC
     FM022100 19008KT P6SM SKC=



000
FTUS45 KPSR 012300
TAFIPL
TAF
KIPL 012325Z 0200/0224 13006KT P6SM SKC
     FM020200 25009KT P6SM SKC
     FM021100 VRB04KT P6SM SKC
     FM022100 14005KT P6SM SKC=



000
FTUS45 KPSR 012200 AAA
TAFBLH
TAF AMD
KBLH 012234Z 0123/0218 18010KT P6SM SKC
     FM020200 20009KT P6SM SKC=



000
FTUS45 KPSR 012100 AAA
TAFPHX
TAF AMD
KPHX 012102Z 0121/0218 28010KT P6SM SKC
      TEMPO 0121/0123 VRB06KT
     FM020700 10005KT P6SM SKC=



000
FTUS45 KPSR 011700
TAFIWA
TAF
KIWA 011731Z 0118/0218 13007KT P6SM SKC
     FM011900 25009KT P6SM SKC
     FM020300 VRB04KT P6SM SKC
     FM020700 14007KT P6SM SKC=



000
FTUS45 KPSR 011700
TAFIPL
TAF
KIPL 011731Z 0118/0218 13006KT P6SM SKC
     FM020200 25009KT P6SM SKC
     FM021100 VRB04KT P6SM SKC=



000
FTUS45 KPSR 011700
TAFBLH
TAF
KBLH 011731Z 0118/0218 18010G20KT P6SM SKC
     FM020200 20009KT P6SM SKC=



000
FTUS45 KPSR 011700
TAFIWA
TAF
KIWA 011731Z 0118/0218 13007KT P6SM SKC
     FM011900 25009KT P6SM SKC
     FM020300 VRB04KT P6SM SKC
     FM020700 14007KT P6SM SKC=



000
FTUS45 KPSR 011700
TAFPHX
TAF
KPHX 011731Z 0118/0218 12008KT P6SM SKC
      TEMPO 0118/0121 VRB06KT
     FM012100 28010KT P6SM SKC
     FM020700 10005KT P6SM SKC=



000
FTUS45 KPSR 011500 AAA
TAFPHX
TAF AMD
KPHX 011510Z 0115/0212 12008KT P6SM SKC
      TEMPO 0117/0121 VRB06KT
     FM012100 28008KT P6SM SKC
     FM020700 10005KT P6SM SKC=



000
FTUS45 KPSR 011100
TAFIWA
TAF
KIWA 011121Z 0112/0212 13007KT P6SM SKC
     FM011900 25009KT P6SM SKC
     FM020300 VRB04KT P6SM SKC
     FM020700 14007KT P6SM SKC
      AMD LTD TO CLD VIS AND WIND TIL 011300=



000
FTUS45 KPSR 011100
TAFBLH
TAF
KBLH 011121Z 0112/0212 18008KT P6SM SKC
     FM020200 23008KT P6SM SKC
     FM020700 18008KT P6SM SKC=



000
FTUS45 KPSR 011100
TAFIWA
TAF
KIWA 011121Z 0112/0212 13007KT P6SM SKC
     FM011900 25009KT P6SM SKC
     FM020300 VRB04KT P6SM SKC
     FM020700 14007KT P6SM SKC
      AMD LTD TO CLD VIS AND WIND TIL 011300=



000
FTUS45 KPSR 011100
TAFIPL
TAF
KIPL 011121Z 0112/0212 VRB05KT P6SM SKC
     FM011800 13005KT P6SM SKC
     FM020200 25009KT P6SM SKC=



000
FTUS45 KPSR 011100
TAFPHX
TAF
KPHX 011121Z 0112/0212 11005KT P6SM SKC
     FM012100 28008KT P6SM SKC
     FM020700 10005KT P6SM SKC=



000
FTUS45 KPSR 010800 AAA
TAFPHX
TAF AMD
KPHX 010852Z 0109/0206 10005KT P6SM SKC
     FM012100 28008KT P6SM SKC=



000
FTUS45 KPSR 010500
TAFIPL
TAF
KIPL 010520Z 0106/0206 25010KT P6SM SKC
     FM011100 VRB05KT P6SM SKC
     FM011800 13006KT P6SM SKC
     FM020200 25009KT P6SM SKC=



000
FTUS45 KPSR 010500
TAFIWA
TAF
KIWA 010520Z 0106/0206 22006KT P6SM FEW250
     FM010700 13009KT P6SM SKC
     FM011900 25009KT P6SM SKC
     FM020300 VRB04KT P6SM SKC
      AMD LTD TO CLD VIS AND WIND TIL 011300=



000
FTUS45 KPSR 010500
TAFIWA
TAF
KIWA 010520Z 0106/0206 22006KT P6SM FEW250
     FM010700 13009KT P6SM SKC
     FM011900 25009KT P6SM SKC
     FM020300 VRB04KT P6SM SKC
      AMD LTD TO CLD VIS AND WIND TIL 011300=



000
FTUS45 KPSR 010500
TAFBLH
TAF
KBLH 010520Z 0106/0206 16005KT P6SM SKC
      TEMPO 0110/0114 VRB05KT
     FM011700 17010KT P6SM SKC
     FM020200 23008KT P6SM SKC=



000
FTUS45 KPSR 010500
TAFPHX
TAF
KPHX 010520Z 0106/0206 26007KT P6SM FEW250
     FM010800 10005KT P6SM SKC
     FM012100 28008KT P6SM SKC=



000
FTUS45 KPSR 010200 AAA
TAFPHX
TAF AMD
KPHX 010249Z 0103/0124 26007KT P6SM FEW250
     FM010800 10005KT P6SM SKC
     FM012100 28008KT P6SM SKC=



000
FTUS45 KPSR 010000 AAA
TAFIPL
TAF AMD
KIPL 010059Z 0101/0124 25010KT P6SM SKC
     FM011100 VRB05KT P6SM SKC
     FM011800 13006KT P6SM SKC=



000
FTUS45 KPSR 312300
TAFBLH
TAF
KBLH 312320Z 0100/0124 17012G20KT P6SM FEW250
     FM010200 21010KT P6SM SKC
     FM011000 VRB05KT P6SM SKC
     FM011700 17010KT P6SM SKC=



000
FTUS45 KPSR 312300
TAFIPL
TAF
KIPL 312320Z 0100/0124 15005KT P6SM SKC
     FM010200 25010KT P6SM SKC
     FM011100 VRB05KT P6SM SKC
     FM011800 13006KT P6SM SKC=



000
FTUS45 KPSR 312300
TAFIWA
TAF
KIWA 312320Z 0100/0124 25010KT P6SM FEW250
      TEMPO 0103/0107 VRB05KT
     FM010700 13009KT P6SM SKC
     FM011900 25009KT P6SM SKC
      AMD LTD TO CLD VIS AND WIND 0103/0113=



000
FTUS45 KPSR 312300
TAFIWA
TAF
KIWA 312320Z 0100/0124 25010KT P6SM FEW250
      TEMPO 0103/0107 VRB05KT
     FM010700 13009KT P6SM SKC
     FM011900 25009KT P6SM SKC
      AMD LTD TO CLD VIS AND WIND 0103/0113=



000
FTUS45 KPSR 312300
TAFPHX
TAF
KPHX 312320Z 0100/0124 28011G17KT P6SM FEW250
     FM010200 26008KT P6SM FEW250
     FM010800 10005KT P6SM SKC
     FM012100 28008KT P6SM SKC=



000
FTUS45 KPSR 312000 AAA
TAFPHX
TAF AMD
KPHX 312048Z 3121/0118 26009G15KT P6SM FEW250
     FM010200 25008KT P6SM FEW250
     FM010800 10005KT P6SM SKC=



000
FTUS45 KPSR 311700
TAFIWA
TAF
KIWA 311720Z 3118/0118 18007KT P6SM FEW250
     FM312000 25009KT P6SM FEW250
     FM010600 13009KT P6SM SKC=



000
FTUS45 KPSR 311700
TAFPHX
TAF
KPHX 311720Z 3118/0118 18007KT P6SM FEW250
     FM312000 26010G15KT P6SM FEW250
     FM010200 25008KT P6SM FEW250
     FM010800 10005KT P6SM SKC=



000
FTUS45 KPSR 311700
TAFIWA
TAF
KIWA 311720Z 3118/0118 18007KT P6SM FEW250
     FM312000 25009KT P6SM FEW250
     FM010600 13009KT P6SM SKC=



000
FTUS45 KPSR 311700
TAFBLH
TAF
KBLH 311720Z 3118/0118 19012G18KT P6SM FEW250
     FM010100 21010KT P6SM SKC
     FM011000 17006KT P6SM SKC=



000
FTUS45 KPSR 311700
TAFIPL
TAF
KIPL 311720Z 3118/0118 15005KT P6SM SKC
     FM312300 25008KT P6SM SKC
     FM011100 VRB05KT P6SM SKC=



000
FTUS45 KPSR 311400 AAA
TAFPHX
TAF AMD
KPHX 311447Z 3115/0112 12007KT P6SM SCT250
     FM311800 18007KT P6SM FEW250
     FM312000 26010KT P6SM FEW250
     FM010800 10005KT P6SM FEW250=



000
FTUS45 KPSR 311100
TAFIWA
TAF
KIWA 311120Z 3112/0112 13008KT P6SM SCT250
     FM311600 19008KT P6SM FEW250
     FM311900 25010KT P6SM FEW250
     FM010700 13008KT P6SM FEW250
      AMD LTD TO CLD VIS AND WIND TIL 311300=



000
FTUS45 KPSR 311100
TAFBLH
TAF
KBLH 311120Z 3112/0112 18006KT P6SM SCT250
     FM311800 19012G22KT P6SM FEW250
     FM010100 22010KT P6SM FEW250
     FM011000 VRB05KT P6SM FEW250=



000
FTUS45 KPSR 311100
TAFIPL
TAF
KIPL 311120Z 3112/0112 15007KT P6SM SKC
     FM010000 22010KT P6SM SKC
     FM010400 27008KT P6SM SKC
     FM011100 VRB05KT P6SM SKC=



000
FTUS45 KPSR 311100
TAFPHX
TAF
KPHX 311120Z 3112/0112 12007KT P6SM SCT250
     FM311700 18007KT P6SM FEW250
     FM312000 26010G15KT P6SM FEW250
     FM010800 10005KT P6SM FEW250=



000
FTUS45 KPSR 311100
TAFIWA
TAF
KIWA 311120Z 3112/0112 13008KT P6SM SCT250
     FM311600 19008KT P6SM FEW250
     FM311900 25010KT P6SM FEW250
     FM010700 13008KT P6SM FEW250
      AMD LTD TO CLD VIS AND WIND TIL 311300=



000
FTUS45 KPSR 310800 AAA
TAFPHX
TAF AMD
KPHX 310844Z 3109/0106 VRB05KT P6SM SKC
     FM311100 11006KT P6SM FEW250
     FM311700 18007KT P6SM FEW250
     FM312100 26010KT P6SM FEW250=



000
FTUS45 KPSR 310500 CCA
TAFIWA
TAF COR
KIWA 310544Z 3106/0106 24008KT P6SM FEW250
     FM311000 13007KT P6SM FEW250
     FM311900 24010KT P6SM FEW250
      AMD LTD TO CLD VIS AND WIND TIL 311300=



000
FTUS45 KPSR 310500 CCA
TAFIWA
TAF COR
KIWA 310544Z 3106/0106 24008KT P6SM FEW250
     FM311000 13007KT P6SM FEW250
     FM311900 24010KT P6SM FEW250
      AMD LTD TO CLD VIS AND WIND TIL 311300=



000
FTUS45 KPSR 310500
TAFBLH
TAF
KBLH 310538Z 3106/0106 19012KT P6SM SKC
     FM310900 18006KT P6SM FEW250
     FM311800 19012G22KT P6SM FEW250
     FM010100 22010KT P6SM FEW250=



000
FTUS45 KPSR 310500
TAFIPL
TAF
KIPL 310538Z 3106/0106 21007KT P6SM SKC
     FM311000 17006KT P6SM SKC
     FM010100 22010KT P6SM SKC=



000
FTUS45 KPSR 310500
TAFIWA
TAF
KIWA 310538Z 3106/0106 13007KT P6SM FEW250
     FM311900 24010KT P6SM FEW250
      AMD LTD TO CLD VIS AND WIND TIL 311300=



000
FTUS45 KPSR 310500
TAFIWA
TAF
KIWA 310538Z 3106/0106 13007KT P6SM FEW250
     FM311900 24010KT P6SM FEW250
      AMD LTD TO CLD VIS AND WIND TIL 311300=



000
FTUS45 KPSR 310500
TAFPHX
TAF
KPHX 310538Z 3106/0106 24006KT P6SM FEW250
     FM311100 11006KT P6SM FEW250
     FM311700 18007KT P6SM FEW250
     FM312100 26010KT P6SM FEW250=



000
FTUS45 KPSR 310300 AAA
TAFPHX
TAF AMD
KPHX 310307Z 3103/3124 28005KT P6SM FEW250
     FM311000 11006KT P6SM FEW250
     FM311700 18007KT P6SM FEW250
     FM312100 26010KT P6SM FEW250=



000
FTUS45 KPSR 302300
TAFIPL
TAF
KIPL 302339Z 3100/3124 14007KT P6SM SKC
     FM310200 23008KT P6SM SKC
     FM311000 15006KT P6SM SKC=



000
FTUS45 KPSR 302300
TAFIWA
TAF
KIWA 302339Z 3100/3124 30007KT P6SM FEW250
     FM310500 13007KT P6SM FEW250
     FM311900 24010KT P6SM FEW250
      AMD LTD TO CLD VIS AND WIND 3103/3113=



000
FTUS45 KPSR 302300
TAFPHX
TAF
KPHX 302339Z 3100/3124 26008KT P6SM FEW250
     FM311000 11005KT P6SM FEW250
     FM311500 17007KT P6SM FEW250
     FM312000 23010KT P6SM FEW250=



000
FTUS45 KPSR 302300
TAFIWA
TAF
KIWA 302339Z 3100/3124 30007KT P6SM FEW250
     FM310500 13007KT P6SM FEW250
     FM311900 24010KT P6SM FEW250
      AMD LTD TO CLD VIS AND WIND 3103/3113=



000
FTUS45 KPSR 302300
TAFBLH
TAF
KBLH 302339Z 3100/3124 19012KT P6SM SKC
     FM310900 18006KT P6SM FEW250
     FM311800 19012G22KT P6SM FEW250=



000
FTUS45 KPSR 302000 AAA
TAFPHX
TAF AMD
KPHX 302046Z 3021/3118 26009KT P6SM FEW250
     FM311000 10005KT P6SM FEW250=



    US Dept of Commerce
    National Oceanic and Atmospheric Administration
    National Weather Service
    1325 East West Highway
    Silver Spring, MD 20910
    Page Author: NWS Internet Services Team
Disclaimer
Information Quality
Credits
Glossary
Privacy Policy
Freedom of Information Act (FOIA)
About Us
Career Opportunities